createdAt,value
2019-03-24T00:02:10.468Z,7.70
2019-03-24T00:04:40.293Z,7.60
2019-03-24T00:07:10.157Z,7.60
2019-03-24T00:09:40.020Z,7.70
2019-03-24T00:12:09.965Z,7.70
2019-03-24T00:14:39.789Z,7.80
2019-03-24T00:17:09.656Z,7.80
2019-03-24T00:19:39.545Z,7.80
2019-03-24T00:22:09.439Z,7.70
2019-03-24T00:24:39.374Z,7.70
2019-03-24T00:27:09.193Z,7.70
2019-03-24T00:29:39.062Z,7.60
2019-03-24T00:32:08.869Z,7.60
2019-03-24T00:34:38.751Z,7.60
2019-03-24T00:37:08.576Z,7.60
2019-03-24T00:39:38.464Z,7.70
2019-03-24T00:42:08.277Z,7.60
2019-03-24T00:44:38.137Z,7.60
2019-03-24T00:47:07.957Z,7.50
2019-03-24T00:49:37.861Z,7.50
2019-03-24T00:52:07.673Z,7.60
2019-03-24T00:54:37.545Z,7.60
2019-03-24T00:57:07.361Z,7.60
2019-03-24T00:59:37.224Z,7.60
2019-03-24T01:02:07.072Z,7.60
2019-03-24T01:04:36.894Z,7.60
2019-03-24T01:07:06.758Z,7.60
2019-03-24T01:09:36.641Z,7.60
2019-03-24T01:12:07.687Z,7.50
2019-03-24T01:14:37.544Z,7.50
2019-03-24T01:17:07.414Z,7.40
2019-03-24T01:19:37.230Z,7.40
2019-03-24T01:22:07.141Z,7.40
2019-03-24T01:24:36.959Z,7.30
2019-03-24T01:27:06.898Z,7.30
2019-03-24T01:29:36.761Z,7.30
2019-03-24T01:32:06.589Z,7.40
2019-03-24T01:34:36.473Z,7.30
2019-03-24T01:37:06.291Z,7.30
2019-03-24T01:39:36.165Z,7.20
2019-03-24T01:42:05.981Z,7.20
2019-03-24T01:44:35.805Z,7.20
2019-03-24T01:47:06.585Z,7.20
2019-03-24T01:49:36.661Z,7.20
2019-03-24T01:52:06.693Z,7.20
2019-03-24T01:54:36.541Z,7.20
2019-03-24T01:57:06.417Z,7.10
2019-03-24T01:59:36.246Z,7.10
2019-03-24T02:02:06.081Z,7.00
2019-03-24T02:04:35.965Z,7.00
2019-03-24T02:07:05.798Z,7.00
2019-03-24T02:09:35.663Z,7.10
2019-03-24T02:12:05.980Z,7.10
2019-03-24T02:14:35.894Z,7.00
2019-03-24T02:17:05.901Z,7.10
2019-03-24T02:19:35.729Z,7.10
2019-03-24T02:22:05.616Z,7.00
2019-03-24T02:24:35.429Z,7.10
2019-03-24T02:27:05.324Z,7.10
2019-03-24T02:29:35.150Z,7.10
2019-03-24T02:32:05.022Z,7.10
2019-03-24T02:34:34.916Z,7.00
2019-03-24T02:37:05.201Z,7.00
2019-03-24T02:39:35.034Z,6.90
2019-03-24T02:42:04.875Z,6.80
2019-03-24T02:44:34.802Z,6.80
2019-03-24T02:47:04.688Z,6.80
2019-03-24T02:49:34.554Z,6.80
2019-03-24T02:52:04.382Z,6.80
2019-03-24T02:54:34.211Z,6.70
2019-03-24T02:57:04.486Z,6.60
2019-03-24T02:59:34.297Z,6.50
2019-03-24T03:02:04.593Z,6.50
2019-03-24T03:04:34.409Z,6.60
2019-03-24T03:07:04.366Z,6.60
2019-03-24T03:09:34.190Z,6.70
2019-03-24T03:12:04.079Z,6.60
2019-03-24T03:14:33.968Z,6.50
2019-03-24T03:17:03.877Z,6.50
2019-03-24T03:19:33.750Z,6.40
2019-03-24T03:22:03.676Z,6.30
2019-03-24T03:24:33.500Z,6.10
2019-03-24T03:27:03.375Z,6.20
2019-03-24T03:29:33.311Z,6.20
2019-03-24T03:32:03.214Z,6.20
2019-03-24T03:34:33.050Z,6.20
2019-03-24T03:37:03.347Z,6.30
2019-03-24T03:39:33.828Z,6.30
2019-03-24T03:42:03.777Z,6.30
2019-03-24T03:44:33.675Z,6.20
2019-03-24T03:47:03.620Z,6.00
2019-03-24T03:49:33.513Z,5.80
2019-03-24T03:52:03.443Z,5.80
2019-03-24T03:54:33.382Z,5.90
2019-03-24T03:57:03.205Z,5.90
2019-03-24T03:59:33.075Z,5.90
2019-03-24T04:02:03.575Z,5.90
2019-03-24T04:04:33.519Z,5.90
2019-03-24T04:07:03.381Z,5.90
2019-03-24T04:09:33.207Z,5.90
2019-03-24T04:12:03.025Z,5.90
2019-03-24T04:14:32.978Z,6.00
2019-03-24T04:17:07.665Z,5.90
2019-03-24T04:19:34.383Z,5.90
2019-03-24T04:22:04.704Z,5.90
2019-03-24T04:24:34.526Z,5.90
2019-03-24T04:27:04.512Z,5.80
2019-03-24T04:29:34.441Z,5.80
2019-03-24T04:32:04.251Z,5.80
2019-03-24T04:34:34.179Z,5.80
2019-03-24T04:37:03.994Z,5.80
2019-03-24T04:39:33.851Z,5.90
2019-03-24T04:42:03.751Z,5.90
2019-03-24T04:44:33.631Z,5.90
2019-03-24T04:47:03.453Z,5.90
2019-03-24T04:49:33.306Z,5.90
2019-03-24T04:52:03.155Z,5.90
2019-03-24T04:54:33.017Z,5.90
2019-03-24T04:57:02.833Z,5.90
2019-03-24T04:59:32.644Z,5.90
2019-03-24T05:02:03.089Z,5.80
2019-03-24T05:04:32.915Z,5.80
2019-03-24T05:07:02.849Z,5.80
2019-03-24T05:09:33.070Z,5.80
2019-03-24T05:12:02.942Z,5.80
2019-03-24T05:14:32.761Z,5.80
2019-03-24T05:17:02.613Z,5.80
2019-03-24T05:19:32.481Z,5.90
2019-03-24T05:22:02.385Z,5.90
2019-03-24T05:24:32.251Z,5.80
2019-03-24T05:27:02.080Z,5.70
2019-03-24T05:29:31.949Z,5.50
2019-03-24T05:32:01.777Z,5.60
2019-03-24T05:34:31.629Z,5.70
2019-03-24T05:37:01.525Z,5.90
2019-03-24T05:39:32.481Z,6.00
2019-03-24T05:42:02.354Z,6.10
2019-03-24T05:44:32.182Z,6.20
2019-03-24T05:47:02.201Z,6.20
2019-03-24T05:49:32.017Z,6.30
2019-03-24T05:52:01.834Z,6.10
2019-03-24T05:54:31.713Z,6.00
2019-03-24T05:57:01.529Z,5.80
2019-03-24T05:59:31.417Z,5.80
2019-03-24T06:02:01.235Z,5.90
2019-03-24T06:04:31.104Z,5.90
2019-03-24T06:07:00.927Z,5.90
2019-03-24T06:09:30.793Z,6.00
2019-03-24T06:12:00.617Z,6.10
2019-03-24T06:14:30.481Z,6.20
2019-03-24T06:17:00.309Z,6.20
2019-03-24T06:19:30.172Z,6.20
2019-03-24T06:22:00.001Z,6.30
2019-03-24T06:24:29.882Z,6.30
2019-03-24T06:26:59.990Z,6.30
2019-03-24T06:29:29.869Z,6.40
2019-03-24T06:31:59.745Z,6.40
2019-03-24T06:34:29.572Z,6.50
2019-03-24T06:36:59.510Z,6.50
2019-03-24T06:39:29.404Z,6.60
2019-03-24T06:41:59.341Z,6.60
2019-03-24T06:44:29.249Z,6.70
2019-03-24T06:46:59.182Z,6.80
2019-03-24T06:49:29.037Z,7.00
2019-03-24T06:51:58.993Z,7.10
2019-03-24T06:54:28.925Z,7.20
2019-03-24T06:56:59.000Z,7.40
2019-03-24T06:59:28.965Z,7.60
2019-03-24T07:01:58.869Z,7.70
2019-03-24T07:04:28.784Z,7.90
2019-03-24T07:06:58.645Z,8.00
2019-03-24T07:09:28.718Z,8.20
2019-03-24T07:12:00.188Z,8.40
2019-03-24T07:14:30.473Z,8.50
2019-03-24T07:17:01.421Z,8.60
2019-03-24T07:19:32.390Z,8.70
2019-03-24T07:22:02.234Z,8.80
2019-03-24T07:24:32.182Z,8.90
2019-03-24T07:27:02.133Z,8.90
2019-03-24T07:29:32.033Z,9.10
2019-03-24T07:32:01.937Z,9.20
2019-03-24T07:34:31.853Z,9.30
2019-03-24T07:37:01.849Z,9.40
2019-03-24T07:39:31.861Z,9.40
2019-03-24T07:42:01.801Z,9.50
2019-03-24T07:44:31.703Z,9.50
2019-03-24T07:47:03.135Z,9.60
2019-03-24T07:49:33.089Z,9.60
2019-03-24T07:52:02.966Z,9.70
2019-03-24T07:54:32.977Z,9.80
2019-03-24T07:57:03.906Z,9.90
2019-03-24T07:59:33.905Z,10.00
2019-03-24T08:02:03.737Z,10.10
2019-03-24T08:04:33.705Z,10.20
2019-03-24T08:07:03.643Z,10.20
2019-03-24T08:09:33.517Z,10.30
2019-03-24T08:12:03.457Z,10.30
2019-03-24T08:14:33.322Z,10.30
2019-03-24T08:17:03.288Z,10.40
2019-03-24T08:19:33.153Z,10.50
2019-03-24T08:22:03.105Z,10.50
2019-03-24T08:24:32.981Z,10.70
2019-03-24T08:27:02.953Z,10.70
2019-03-24T08:29:32.923Z,10.80
2019-03-24T08:32:02.825Z,10.90
2019-03-24T08:34:32.753Z,11.00
2019-03-24T08:37:02.705Z,11.10
2019-03-24T08:39:32.636Z,11.20
2019-03-24T08:42:02.533Z,11.30
2019-03-24T08:44:32.461Z,11.40
2019-03-24T08:47:02.373Z,11.50
2019-03-24T08:49:33.437Z,11.50
2019-03-24T08:52:03.459Z,11.60
2019-03-24T08:54:33.410Z,11.80
2019-03-24T08:57:03.381Z,11.80
2019-03-24T08:59:33.645Z,11.90
2019-03-24T09:02:03.615Z,12.00
2019-03-24T09:04:33.629Z,12.30
2019-03-24T09:07:03.490Z,12.70
2019-03-24T09:09:33.452Z,12.80
2019-03-24T09:12:03.326Z,12.80
2019-03-24T09:14:33.201Z,13.00
2019-03-24T09:17:03.053Z,13.00
2019-03-24T09:19:33.156Z,13.00
2019-03-24T09:22:03.085Z,13.00
2019-03-24T09:24:32.978Z,13.10
2019-03-24T09:27:02.971Z,13.20
2019-03-24T09:29:32.861Z,13.30
2019-03-24T09:32:02.882Z,13.40
2019-03-24T09:34:32.757Z,13.50
2019-03-24T09:37:02.741Z,13.50
2019-03-24T09:39:32.639Z,13.60
2019-03-24T09:42:02.580Z,13.80
2019-03-24T09:44:32.613Z,13.80
2019-03-24T09:47:02.486Z,13.90
2019-03-24T09:49:32.363Z,14.10
2019-03-24T09:52:02.174Z,14.10
2019-03-24T09:54:31.997Z,14.20
2019-03-24T09:57:02.072Z,14.30
2019-03-24T09:59:31.910Z,14.40
2019-03-24T10:02:01.862Z,14.40
2019-03-24T10:04:31.914Z,14.50
2019-03-24T10:07:01.744Z,14.70
2019-03-24T10:09:31.678Z,15.00
2019-03-24T10:12:01.570Z,15.10
2019-03-24T10:14:31.549Z,15.20
2019-03-24T10:17:01.405Z,15.40
2019-03-24T10:19:31.345Z,15.50
2019-03-24T10:22:01.301Z,15.50
2019-03-24T10:24:31.194Z,15.60
2019-03-24T10:27:01.130Z,15.80
2019-03-24T10:29:31.049Z,15.90
2019-03-24T10:32:01.642Z,16.10
2019-03-24T10:34:31.567Z,16.30
2019-03-24T10:37:01.504Z,16.40
2019-03-24T10:39:32.080Z,16.50
2019-03-24T10:42:02.701Z,16.60
2019-03-24T10:44:32.668Z,16.70
2019-03-24T10:47:02.594Z,16.80
2019-03-24T10:49:32.509Z,16.80
2019-03-24T10:52:02.425Z,16.80
2019-03-24T10:54:32.436Z,17.00
2019-03-24T10:57:02.347Z,17.10
2019-03-24T10:59:32.205Z,17.10
2019-03-24T11:02:02.190Z,17.10
2019-03-24T11:04:32.061Z,17.40
2019-03-24T11:07:02.016Z,17.40
2019-03-24T11:09:32.024Z,17.50
2019-03-24T11:12:01.948Z,17.70
2019-03-24T11:14:31.790Z,17.70
2019-03-24T11:17:01.711Z,17.90
2019-03-24T11:19:36.010Z,18.00
2019-03-24T11:22:03.221Z,18.00
2019-03-24T11:24:33.098Z,18.20
2019-03-24T11:27:02.931Z,18.20
2019-03-24T11:29:32.885Z,18.20
2019-03-24T11:32:02.785Z,18.30
2019-03-24T11:34:32.703Z,18.50
2019-03-24T11:37:02.659Z,18.70
2019-03-24T11:39:32.648Z,18.70
2019-03-24T11:42:03.184Z,18.70
2019-03-24T11:44:34.769Z,18.80
2019-03-24T11:47:04.742Z,18.90
2019-03-24T11:49:34.656Z,19.10
2019-03-24T11:52:04.537Z,19.30
2019-03-24T11:54:34.504Z,19.50
2019-03-24T11:57:04.353Z,19.60
2019-03-24T11:59:34.397Z,19.90
2019-03-24T12:02:04.398Z,19.90
2019-03-24T12:04:34.319Z,20.20
2019-03-24T12:07:04.282Z,20.10
2019-03-24T12:09:34.193Z,20.20
2019-03-24T12:12:04.030Z,20.40
2019-03-24T12:14:33.917Z,20.50
2019-03-24T12:17:03.787Z,20.60
2019-03-24T12:19:33.738Z,20.70
2019-03-24T12:22:03.673Z,20.70
2019-03-24T12:24:33.568Z,20.70
2019-03-24T12:27:03.400Z,21.00
2019-03-24T12:29:33.288Z,21.00
2019-03-24T12:32:03.189Z,21.10
2019-03-24T12:34:33.086Z,21.00
2019-03-24T12:37:03.055Z,21.00
2019-03-24T12:39:32.878Z,21.30
2019-03-24T12:42:02.769Z,21.20
2019-03-24T12:44:32.632Z,21.40
2019-03-24T12:47:02.550Z,21.50
2019-03-24T12:49:32.497Z,21.50
2019-03-24T12:52:02.441Z,21.80
2019-03-24T12:54:32.284Z,22.00
2019-03-24T12:57:02.163Z,22.00
2019-03-24T12:59:32.003Z,21.90
2019-03-24T13:02:01.953Z,22.00
2019-03-24T13:04:31.868Z,22.20
2019-03-24T13:07:01.853Z,22.20
2019-03-24T13:09:33.642Z,22.20
2019-03-24T13:12:03.312Z,22.30
2019-03-24T13:14:33.259Z,22.50
2019-03-24T13:17:03.467Z,22.80
2019-03-24T13:19:35.890Z,22.80
2019-03-24T13:22:05.521Z,22.80
2019-03-24T13:24:35.441Z,22.80
2019-03-24T13:27:05.293Z,22.60
2019-03-24T13:29:35.309Z,22.50
2019-03-24T13:32:05.385Z,22.50
2019-03-24T13:34:35.341Z,22.70
2019-03-24T13:37:05.197Z,22.80
2019-03-24T13:39:35.096Z,22.90
2019-03-24T13:42:04.981Z,23.30
2019-03-24T13:44:34.913Z,23.50
2019-03-24T13:47:04.898Z,23.70
2019-03-24T13:49:35.175Z,23.70
2019-03-24T13:52:05.219Z,23.60
2019-03-24T13:54:35.116Z,23.70
2019-03-24T13:57:05.088Z,23.80
2019-03-24T13:59:35.030Z,23.70
2019-03-24T14:02:05.714Z,24.00
2019-03-24T14:04:35.581Z,24.30
2019-03-24T14:07:05.469Z,24.40
2019-03-24T14:09:35.297Z,24.30
2019-03-24T14:12:05.292Z,24.30
2019-03-24T14:14:35.169Z,24.40
2019-03-24T14:17:05.242Z,24.50
2019-03-24T14:19:35.229Z,24.50
2019-03-24T14:22:05.205Z,24.60
2019-03-24T14:24:35.137Z,24.60
2019-03-24T14:27:05.000Z,24.60
2019-03-24T14:29:34.973Z,24.90
2019-03-24T14:32:04.861Z,25.00
2019-03-24T14:34:34.745Z,25.00
2019-03-24T14:37:04.709Z,25.10
2019-03-24T14:39:34.614Z,25.10
2019-03-24T14:42:08.657Z,25.40
2019-03-24T14:44:38.534Z,25.50
2019-03-24T14:47:08.440Z,25.60
2019-03-24T14:49:38.524Z,25.80
2019-03-24T14:52:09.018Z,25.70
2019-03-24T14:54:38.898Z,26.10
2019-03-24T14:57:08.891Z,26.40
2019-03-24T14:59:38.861Z,26.10
2019-03-24T15:02:08.715Z,25.60
2019-03-24T15:04:38.689Z,25.20
2019-03-24T15:07:08.552Z,24.70
2019-03-24T15:09:38.618Z,25.00
2019-03-24T15:12:08.532Z,25.30
2019-03-24T15:14:38.451Z,25.50
2019-03-24T15:17:08.321Z,25.30
2019-03-24T15:19:38.289Z,24.80
2019-03-24T15:22:08.231Z,24.80
2019-03-24T15:24:38.157Z,24.50
2019-03-24T15:27:10.031Z,24.20
2019-03-24T15:29:39.989Z,24.50
2019-03-24T15:32:10.049Z,24.70
2019-03-24T15:34:39.942Z,24.50
2019-03-24T15:37:09.889Z,24.20
2019-03-24T15:39:39.829Z,23.90
2019-03-24T15:42:09.821Z,23.20
2019-03-24T15:44:39.729Z,22.70
2019-03-24T15:47:09.770Z,22.40
2019-03-24T15:49:39.663Z,22.00
2019-03-24T15:52:09.502Z,21.90
2019-03-24T15:54:39.800Z,21.80
2019-03-24T15:57:09.702Z,21.50
2019-03-24T15:59:39.581Z,21.20
2019-03-24T16:02:10.015Z,20.90
2019-03-24T16:04:39.903Z,20.60
2019-03-24T16:07:09.784Z,20.30
2019-03-24T16:09:39.669Z,20.00
2019-03-24T16:12:09.502Z,19.80
2019-03-24T16:14:39.603Z,19.60
2019-03-24T16:17:11.171Z,19.40
2019-03-24T16:19:41.146Z,19.20
2019-03-24T16:22:11.013Z,19.00
2019-03-24T16:24:40.981Z,18.90
2019-03-24T16:27:10.837Z,18.70
2019-03-24T16:29:40.805Z,18.60
2019-03-24T16:32:10.734Z,18.40
2019-03-24T16:34:40.709Z,18.30
2019-03-24T16:37:11.678Z,18.10
2019-03-24T16:39:41.558Z,17.90
2019-03-24T16:42:11.467Z,17.80
2019-03-24T16:44:41.366Z,17.70
2019-03-24T16:47:11.260Z,17.60
2019-03-24T16:49:41.135Z,17.40
2019-03-24T16:52:10.981Z,17.20
2019-03-24T16:54:40.942Z,17.00
2019-03-24T16:57:10.933Z,16.90
2019-03-24T16:59:40.796Z,16.80
2019-03-24T17:02:10.772Z,16.70
2019-03-24T17:04:40.614Z,16.50
2019-03-24T17:07:10.588Z,16.40
2019-03-24T17:09:40.412Z,16.30
2019-03-24T17:12:10.405Z,16.20
2019-03-24T17:14:40.289Z,16.00
2019-03-24T17:17:11.476Z,16.00
2019-03-24T17:19:41.834Z,15.80
2019-03-24T17:22:11.831Z,15.70
2019-03-24T17:24:41.776Z,15.50
2019-03-24T17:27:11.668Z,15.30
2019-03-24T17:29:41.509Z,15.10
2019-03-24T17:32:11.479Z,15.10
2019-03-24T17:34:41.311Z,14.90
2019-03-24T17:37:11.329Z,14.90
2019-03-24T17:39:41.316Z,14.80
2019-03-24T17:42:11.215Z,14.70
2019-03-24T17:44:41.115Z,14.60
2019-03-24T17:47:11.113Z,14.50
2019-03-24T17:49:41.053Z,14.30
2019-03-24T17:52:11.016Z,14.10
2019-03-24T17:54:40.957Z,14.00
2019-03-24T17:57:10.861Z,13.90
2019-03-24T17:59:40.702Z,13.90
2019-03-24T18:02:14.465Z,13.80
2019-03-24T18:04:42.133Z,13.70
2019-03-24T18:07:12.069Z,13.60
2019-03-24T18:09:42.050Z,13.70
2019-03-24T18:12:11.941Z,13.60
2019-03-24T18:14:41.764Z,13.50
2019-03-24T18:17:11.874Z,13.50
2019-03-24T18:19:41.701Z,13.40
2019-03-24T18:22:12.083Z,13.40
2019-03-24T18:24:42.696Z,13.30
2019-03-24T18:27:12.581Z,13.30
2019-03-24T18:29:42.412Z,13.40
2019-03-24T18:32:12.360Z,13.40
2019-03-24T18:34:42.293Z,13.40
2019-03-24T18:37:12.126Z,13.40
2019-03-24T18:39:42.001Z,13.40
2019-03-24T18:42:11.892Z,13.50
2019-03-24T18:44:41.829Z,13.60
2019-03-24T18:47:11.733Z,13.60
2019-03-24T18:49:41.788Z,13.50
2019-03-24T18:52:22.103Z,13.40
2019-03-24T18:54:43.246Z,13.40
2019-03-24T18:57:13.131Z,13.30
2019-03-24T18:59:43.115Z,13.30
2019-03-24T19:02:12.957Z,13.30
2019-03-24T19:04:42.842Z,13.30
2019-03-24T19:07:12.793Z,13.30
2019-03-24T19:09:42.646Z,13.30
2019-03-24T19:12:12.492Z,13.30
2019-03-24T19:14:42.498Z,13.30
2019-03-24T19:17:12.375Z,13.30
2019-03-24T19:19:42.273Z,13.30
2019-03-24T19:22:12.155Z,13.30
2019-03-24T19:24:42.097Z,13.30
2019-03-24T19:27:12.102Z,13.30
2019-03-24T19:29:42.073Z,13.30
2019-03-24T19:32:12.429Z,13.30
2019-03-24T19:34:42.453Z,13.30
2019-03-24T19:37:12.901Z,13.30
2019-03-24T19:39:42.797Z,13.30
2019-03-24T19:42:12.750Z,13.30
2019-03-24T19:44:42.677Z,13.30
2019-03-24T19:47:12.553Z,13.40
2019-03-24T19:49:42.464Z,13.30
2019-03-24T19:52:12.318Z,13.30
2019-03-24T19:54:42.219Z,13.30
2019-03-24T19:57:12.061Z,13.20
2019-03-24T19:59:41.922Z,13.20
2019-03-24T20:02:11.871Z,13.20
2019-03-24T20:04:41.835Z,13.20
2019-03-24T20:07:11.884Z,13.20
2019-03-24T20:09:41.757Z,13.10
2019-03-24T20:12:11.877Z,13.10
2019-03-24T20:14:41.771Z,13.10
2019-03-24T20:17:11.637Z,13.10
2019-03-24T20:19:41.690Z,13.10
2019-03-24T20:22:11.527Z,13.20
2019-03-24T20:24:41.453Z,13.20
2019-03-24T20:27:11.413Z,13.10
2019-03-24T20:29:41.425Z,13.10
2019-03-24T20:32:11.389Z,13.10
2019-03-24T20:34:41.398Z,13.00
2019-03-24T20:37:11.304Z,13.00
2019-03-24T20:39:41.293Z,13.00
2019-03-24T20:42:11.285Z,13.00
2019-03-24T20:44:41.436Z,12.90
2019-03-24T20:47:11.475Z,12.90
2019-03-24T20:49:41.535Z,12.90
2019-03-24T20:52:11.544Z,12.90
2019-03-24T20:54:41.529Z,13.00
2019-03-24T20:57:11.573Z,13.00
2019-03-24T20:59:41.548Z,12.90
2019-03-24T21:02:11.461Z,12.90
2019-03-24T21:04:41.498Z,12.80
2019-03-24T21:07:11.408Z,12.80
2019-03-24T21:09:41.382Z,12.70
2019-03-24T21:12:11.248Z,12.60
2019-03-24T21:14:41.143Z,12.60
2019-03-24T21:17:11.075Z,12.60
2019-03-24T21:19:40.989Z,12.60
2019-03-24T21:22:10.868Z,12.60
2019-03-24T21:24:40.800Z,12.60
2019-03-24T21:27:10.701Z,12.60
2019-03-24T21:29:40.536Z,12.60
2019-03-24T21:32:10.369Z,12.60
2019-03-24T21:34:40.332Z,12.60
2019-03-24T21:37:10.197Z,12.50
2019-03-24T21:39:40.081Z,12.50
2019-03-24T21:42:09.973Z,12.50
2019-03-24T21:44:39.863Z,12.50
2019-03-24T21:47:09.777Z,12.40
2019-03-24T21:49:39.689Z,12.50
2019-03-24T21:52:09.575Z,12.50
2019-03-24T21:54:39.465Z,12.50
2019-03-24T21:57:09.397Z,12.40
2019-03-24T21:59:39.449Z,12.40
2019-03-24T22:02:09.437Z,12.30
2019-03-24T22:04:39.369Z,12.30
2019-03-24T22:07:09.258Z,12.20
2019-03-24T22:09:39.099Z,12.20
2019-03-24T22:12:08.985Z,12.20
2019-03-24T22:14:38.825Z,12.20
2019-03-24T22:17:08.710Z,12.10
2019-03-24T22:19:38.772Z,12.10
2019-03-24T22:22:09.404Z,12.10
2019-03-24T22:24:39.236Z,12.10
2019-03-24T22:27:09.213Z,12.10
2019-03-24T22:29:39.216Z,12.10
2019-03-24T22:32:09.098Z,12.10
2019-03-24T22:34:39.042Z,12.10
2019-03-24T22:37:15.815Z,12.00
2019-03-24T22:39:40.488Z,12.00
2019-03-24T22:42:10.443Z,11.90
2019-03-24T22:44:40.297Z,11.80
2019-03-24T22:47:10.272Z,11.70
2019-03-24T22:49:40.282Z,11.60
2019-03-24T22:52:10.126Z,11.60
2019-03-24T22:54:40.018Z,11.60
2019-03-24T22:57:09.929Z,11.70
2019-03-24T22:59:39.749Z,11.70
2019-03-24T23:02:09.670Z,11.70
2019-03-24T23:04:39.555Z,11.60
2019-03-24T23:07:09.392Z,11.60
2019-03-24T23:09:39.285Z,11.50
2019-03-24T23:12:09.126Z,11.40
2019-03-24T23:14:38.957Z,11.40
2019-03-24T23:17:08.937Z,11.40
2019-03-24T23:19:38.917Z,11.40
2019-03-24T23:22:08.757Z,11.40
2019-03-24T23:24:38.648Z,11.40
2019-03-24T23:27:08.517Z,11.30
2019-03-24T23:29:38.354Z,11.30
2019-03-24T23:32:08.329Z,11.30
2019-03-24T23:34:38.156Z,11.30
2019-03-24T23:37:08.030Z,11.40
2019-03-24T23:39:38.037Z,11.40
2019-03-24T23:42:07.873Z,11.40
2019-03-24T23:44:37.698Z,11.40
2019-03-24T23:47:07.585Z,11.40
2019-03-24T23:49:37.504Z,11.40
2019-03-24T23:52:07.413Z,11.30
2019-03-24T23:54:37.361Z,11.40
2019-03-24T23:57:08.051Z,11.40
2019-03-24T23:59:37.987Z,11.40
